Date,TemperatureHighF,TemperatureAvgF,TemperatureLowF,DewpointHighF,DewpointAvgF,DewpointLowF,HumidityHigh,HumidityAvg,HumidityLow,PressureMaxIn,PressureMinIn,WindSpeedMaxMPH,WindSpeedAvgMPH,GustSpeedMaxMPH,PrecipitationSumIn
2013-4-1,72.9,57.6,45.0,49.4,22.6,-7.4,91,40,10,29.82,29.57,22,7,22,0.01
2013-4-2,60.4,47.1,31.5,16.3,-1.2,-12.5,47,15,10,30.00,29.81,23,4,23,0.00
2013-4-3,61.3,45.9,29.7,7.9,-2.2,-16.1,39,15,10,30.21,29.99,24,5,24,0.00
2013-4-4,53.4,41.0,30.7,33.4,1.7,-16.0,87,26,10,30.26,29.88,17,4,17,0.37
2013-4-5,70.3,50.9,36.3,37.4,19.3,-1.6,91,45,10,29.88,29.67,18,6,18,0.19
2013-4-6,67.1,51.4,41.4,19.6,-0.3,-11.1,37,13,10,30.15,29.86,20,7,20,0.00
2013-4-7,74.5,56.0,35.4,28.8,15.4,2.0,68,27,10,30.14,29.86,22,7,22,0.00
2013-4-8,84.4,70.0,55.8,38.2,23.7,12.8,48,21,10,29.93,29.80,17,6,17,0.00
2013-4-9,91.0,76.5,62.2,44.4,29.5,16.5,51,21,10,29.94,29.80,16,6,16,0.00
2013-4-10,93.6,80.5,67.8,70.6,30.2,19.5,99,19,10,30.03,29.78,21,8,21,0.00
2013-4-11,88.5,77.0,65.8,50.2,35.8,19.6,57,26,10,29.86,29.71,21,8,21,0.00
2013-4-12,88.0,74.6,64.9,63.5,45.4,11.5,90,44,10,29.72,29.50,21,8,21,0.46
2013-4-13,76.8,64.5,47.7,46.9,18.7,5.3,64,22,10,29.90,29.63,24,5,24,0.00
2013-4-14,63.3,57.3,56.7,22.2,20.4,4.2,26,24,10,30.07,29.89,9,2,9,0.00
2013-4-15,67.5,59.1,52.3,49.1,38.5,2.8,82,52,10,30.22,30.03,14,5,14,0.07
2013-4-16,79.7,66.2,57.0,51.6,45.6,33.4,74,51,22,30.26,30.12,14,3,14,0.00
2013-4-17,82.6,72.5,62.8,55.4,47.2,37.8,74,46,21,30.15,30.05,11,6,11,0.00
2013-4-18,80.8,63.2,59.0,53.6,49.7,25.0,80,67,14,30.16,29.97,14,5,14,0.00
2013-4-19,83.1,71.1,64.4,62.7,54.9,16.0,89,61,10,29.98,29.59,25,9,25,0.40
2013-4-20,70.7,58.2,49.8,59.2,18.7,-2.6,81,28,10,30.27,29.67,15,4,15,0.00
2013-4-21,61.2,50.5,41.5,15.8,4.5,-4.8,34,16,10,30.53,30.26,23,6,23,0.00
2013-4-22,60.1,49.0,35.8,36.4,18.8,2.8,71,34,10,30.51,30.31,20,8,20,0.00
2013-4-23,71.2,53.0,47.3,40.0,31.9,10.8,73,48,10,30.31,29.61,13,7,13,0.00
2013-4-24,80.1,63.7,44.8,44.9,34.1,12.8,86,44,10,29.77,29.52,24,7,24,0.00
2013-4-25,74.3,60.6,49.8,43.9,16.9,-1.5,46,21,10,29.94,29.59,22,6,22,0.00
2013-4-26,77.0,58.4,11.3,41.2,20.6,-0.2,76,32,10,30.11,29.86,16,3,16,0.00
2013-4-27,77.5,63.3,49.1,35.3,18.7,6.0,54,22,10,29.99,29.85,11,3,11,0.09
2013-4-28,67.6,58.7,50.7,43.0,21.7,4.2,63,29,10,29.88,29.71,11,3,11,0.00
2013-4-29,55.4,55.4,55.4,43.0,43.0,43.0,63,63,63,29.73,29.56,3,3,4,0.00
2013-4-30,64.9,58.7,55.4,55.8,52.2,43.0,98,80,59,29.82,29.63,17,6,17,0.02